Terminal Aerodrome Forecast
Issued by NWS

Home | Current Version | Previous Version | Text Only | Print | Product List | Glossary Off
Versions: 1 2 3 4 5 6 7 8 9 10 11 12 13 14 15

000
FTUS42 KTBW 162300
TAFPIE
TAF
KPIE 162339Z 1700/1724 07013G20KT P6SM SCT040
      TEMPO 1700/1704 BKN040
     FM170800 06013KT P6SM SCT010 BKN020
     FM171500 07012KT P6SM VCSH SCT020 BKN035
     FM171800 07012KT P6SM VCSH SCT030 BKN050=

USA.gov is the U.S. government's official web portal to all federal, state and local government web resources and services.